ADDS TAF Board (Experimental) INFO Settings

IDs: Format: Expanded Condensed

KMCO - Orlando Intl, FL, US

Issued at 1732 UTC 02 Mar 2015
Updated at: 2031 UTC 02 Mar 2015
Time1953Z 02/21Z 02/22Z 02/23Z 03/00Z 03/01Z 03/02Z 03/03Z 03/04Z 03/05Z 03/06Z 03/07Z 03/08Z 03/09Z
Type OBS PRVL PRVL PRVL PRVL PRVL PRVL PRVL PRVL PRVL PRVL
  [TEMP]  
PRVL
  [TEMP]  
PRVL PRVL
VIS 10 >6 >6 >6 >6 >6 >6 >6 >6 >6 >6
  [2]  
>6
  [2]  
1 1
CIG 36 -- -- -- -- -- -- -- -- -- --
  [2]  
--
  [2]  
2 2
Cover BKN SCT SCT SCT SKC SKC SKC SKC SKC FEW FEW
  [BKN]  
FEW
  [BKN]  
OVC OVC
FltCat VFR VFR VFR VFR VFR VFR VFR VFR VFR VFR VFR
  [LIFR]  
VFR
  [LIFR]  
LIFR LIFR
WX -- -- -- -- -- -- -- -- -- -- --
  [BR]  
--
  [BR]  
BR BR
WDir 350 60 60 60 VRB VRB VRB VRB VRB VRB VRB
[VRB]
VRB
[VRB]
VRB VRB
WSpd 4 7 7 7 0 0 0 0 0 0 0
  [0]  
0
  [0]  
0 0
WGst -- -- -- -- -- -- -- -- -- -- --
  [--]  
--
  [--]  
-- --
R17/35
XWnd -1 6 6 6 VRB VRB VRB VRB VRB VRB 0 0 VRB VRB
XGst -- -- -- -- -- -- -- -- -- -- 0 0 -- --
HWnd -4 -3 -3 -3 VRB VRB VRB VRB VRB VRB 0 0 VRB VRB
HGst -- -- -- -- -- -- -- -- -- -- 0 0 -- --
R18/36
XWnd -1 6 6 6 VRB VRB VRB VRB VRB VRB 0 0 VRB VRB
XGst -- -- -- -- -- -- -- -- -- -- 0 0 -- --
HWnd -4 -3 -3 -3 VRB VRB VRB VRB VRB VRB 0 0 VRB VRB
HGst -- -- -- -- -- -- -- -- -- -- 0 0 -- --

NOTE: TEMPO conditions in [brackets]. Keep in mind TEMPO conditions might be better (lower impact) than prevailing conditions.

Raw TAF
KMCO 021732Z 0218/0318 06007KT P6SM SCT030
  FM030000 00000KT P6SM SKC
  FM030500 00000KT P6SM FEW002
  TEMPO 0306/0308 2SM BR BKN002
  FM030800 00000KT 1SM BR OVC002
  TEMPO 0310/0314 1/4SM FG VV001
  FM031500 05004KT P6SM SCT005
  FM031700 10008KT P6SM SCT030


Raw METAR
KMCO 021953Z 35004KT 10SM BKN036 BKN050 27/19 A3021 RMK AO2 SLP229 T02720189
KMCO 021853Z 00000KT 10SM SCT031 26/18 A3023 RMK AO2 SLP236 T02610183
KMCO 021753Z 23003KT 10SM FEW013 FEW250 26/20 A3027 RMK AO2 SLP248 T02610200 10267 20178 58016

METAR Board
Radar Display
Forecast Discussion

TAF Board Legend

Potential Impact
Threat None Slight Moderate High
Visibility (sm) ≥5.1 5.1>X≥3 3>X≥1 <1
Ceiling (100 ft) ≥30.1 30.1>X≥10 10>X≥5 <5
Wind Speed (kt) <10 10≤X<20 20≤X<30 ≥30
Wind Gust (kt) <15 15≤X<25 25≤X<35 ≥35
Weather No Wx Reported VCTS,-TS,-FZRA,SN TS,FZRA +TS,+FZRA,+SN